createdAt,value
2018-08-07T00:02:14.677Z,23.70
2018-08-07T00:04:49.874Z,23.70
2018-08-07T00:07:25.105Z,23.70
2018-08-07T00:10:00.149Z,23.50
2018-08-07T00:12:35.187Z,23.30
2018-08-07T00:15:11.462Z,23.30
2018-08-07T00:17:46.789Z,23.30
2018-08-07T00:20:21.932Z,23.30
2018-08-07T00:22:57.172Z,23.20
2018-08-07T00:25:32.292Z,23.30
2018-08-07T00:28:07.439Z,23.10
2018-08-07T00:30:42.584Z,23.20
2018-08-07T00:33:17.752Z,23.20
2018-08-07T00:35:52.888Z,23.30
2018-08-07T00:38:28.775Z,23.10
2018-08-07T00:41:04.228Z,23.00
2018-08-07T00:43:39.296Z,23.10
2018-08-07T00:46:14.411Z,23.10
2018-08-07T00:48:49.549Z,23.10
2018-08-07T00:51:24.816Z,22.90
2018-08-07T00:53:59.922Z,22.90
2018-08-07T00:56:35.066Z,22.90
2018-08-07T00:59:10.288Z,23.00
2018-08-07T01:01:45.536Z,23.00
2018-08-07T01:04:20.604Z,22.80
2018-08-07T01:06:55.687Z,22.90
2018-08-07T01:09:30.736Z,22.70
2018-08-07T01:12:06.120Z,22.60
2018-08-07T01:14:41.160Z,22.60
2018-08-07T01:17:16.248Z,22.70
2018-08-07T01:19:51.490Z,22.80
2018-08-07T01:22:26.552Z,22.70
2018-08-07T01:25:01.676Z,22.80
2018-08-07T01:27:36.767Z,22.50
2018-08-07T01:30:14.181Z,22.50
2018-08-07T01:32:49.308Z,22.40
2018-08-07T01:35:25.060Z,22.40
2018-08-07T01:38:00.224Z,22.40
2018-08-07T01:40:35.244Z,22.40
2018-08-07T01:43:10.425Z,22.40
2018-08-07T01:45:45.445Z,22.40
2018-08-07T01:48:20.613Z,22.10
2018-08-07T01:50:55.866Z,22.20
2018-08-07T01:53:31.859Z,22.20
2018-08-07T01:56:07.049Z,22.20
2018-08-07T01:58:42.143Z,22.20
2018-08-07T02:01:17.152Z,21.90
2018-08-07T02:03:52.184Z,21.90
2018-08-07T02:06:27.228Z,22.10
2018-08-07T02:09:02.477Z,22.10
2018-08-07T02:11:37.700Z,22.10
2018-08-07T02:14:12.836Z,22.00
2018-08-07T02:16:47.878Z,22.10
2018-08-07T02:19:23.232Z,21.80
2018-08-07T02:21:58.505Z,22.10
2018-08-07T02:24:33.544Z,22.30
2018-08-07T02:27:08.590Z,22.00
2018-08-07T02:29:43.596Z,22.10
2018-08-07T02:32:19.446Z,21.90
2018-08-07T02:34:54.564Z,21.90
2018-08-07T02:37:29.599Z,21.80
2018-08-07T02:40:06.184Z,21.90
2018-08-07T02:42:41.556Z,22.10
2018-08-07T02:45:18.848Z,22.10
2018-08-07T02:47:54.021Z,22.00
2018-08-07T02:50:29.061Z,21.60
2018-08-07T02:53:04.199Z,21.60
2018-08-07T02:55:39.273Z,21.80
2018-08-07T02:58:14.460Z,21.80
2018-08-07T03:00:49.634Z,21.90
2018-08-07T03:03:24.734Z,21.80
2018-08-07T03:05:59.947Z,21.60
2018-08-07T03:08:34.988Z,21.40
2018-08-07T03:11:10.252Z,21.60
2018-08-07T03:13:45.233Z,21.70
2018-08-07T03:16:27.005Z,21.60
2018-08-07T03:19:02.117Z,21.60
2018-08-07T03:21:37.414Z,21.70
2018-08-07T03:24:12.421Z,21.60
2018-08-07T03:26:47.460Z,21.60
2018-08-07T03:29:22.606Z,21.40
2018-08-07T03:31:57.613Z,21.40
2018-08-07T03:34:32.712Z,21.50
2018-08-07T03:37:07.701Z,21.40
2018-08-07T03:39:42.856Z,21.40
2018-08-07T03:42:17.986Z,21.30
2018-08-07T03:44:53.008Z,21.30
2018-08-07T03:47:28.139Z,21.40
2018-08-07T03:50:03.600Z,21.30
2018-08-07T03:52:38.805Z,21.40
2018-08-07T03:55:15.981Z,21.20
2018-08-07T03:57:51.127Z,21.40
2018-08-07T04:00:26.188Z,21.60
2018-08-07T04:03:01.400Z,21.10
2018-08-07T04:05:36.637Z,20.90
2018-08-07T04:08:11.792Z,21.10
2018-08-07T04:10:46.860Z,21.20
2018-08-07T04:13:25.681Z,21.30
2018-08-07T04:16:00.628Z,21.30
2018-08-07T04:21:42.084Z,21.40
2018-08-07T04:24:17.116Z,21.60
2018-08-07T04:26:52.297Z,21.50
2018-08-07T04:29:27.452Z,21.60
2018-08-07T04:32:02.644Z,21.40
2018-08-07T04:34:37.781Z,21.40
2018-08-07T04:37:12.919Z,21.20
2018-08-07T04:39:48.118Z,21.10
2018-08-07T04:42:23.310Z,21.50
2018-08-07T04:44:58.334Z,21.60
2018-08-07T04:47:33.577Z,21.30
2018-08-07T04:50:09.272Z,21.40
2018-08-07T04:52:44.742Z,21.50
2018-08-07T04:55:19.964Z,21.60
2018-08-07T04:57:55.121Z,21.50
2018-08-07T05:00:30.263Z,21.60
2018-08-07T05:03:05.688Z,21.60
2018-08-07T05:05:40.898Z,21.60
2018-08-07T05:08:16.037Z,21.80
2018-08-07T05:10:51.226Z,21.80
2018-08-07T05:13:26.188Z,22.10
2018-08-07T05:16:01.398Z,21.80
2018-08-07T05:18:36.506Z,21.80
2018-08-07T05:21:11.562Z,21.90
2018-08-07T05:23:46.719Z,21.80
2018-08-07T05:26:21.830Z,22.10
2018-08-07T05:28:56.967Z,22.10
2018-08-07T05:31:32.055Z,22.40
2018-08-07T05:34:07.298Z,22.50
2018-08-07T05:36:42.421Z,22.50
2018-08-07T05:39:17.624Z,22.60
2018-08-07T05:41:52.749Z,22.50
2018-08-07T05:44:27.988Z,22.40
2018-08-07T05:47:03.036Z,22.50
2018-08-07T05:49:38.050Z,22.30
2018-08-07T05:52:13.260Z,22.40
2018-08-07T05:54:48.430Z,22.40
2018-08-07T05:57:28.316Z,22.60
2018-08-07T06:00:05.142Z,22.50
2018-08-07T06:02:40.371Z,22.70
2018-08-07T06:05:16.589Z,23.10
2018-08-07T06:07:51.597Z,23.20
2018-08-07T06:10:26.734Z,23.40
2018-08-07T06:13:01.896Z,23.60
2018-08-07T06:15:37.100Z,23.40
2018-08-07T06:18:12.165Z,23.20
2018-08-07T06:20:47.430Z,23.20
2018-08-07T06:23:22.511Z,22.90
2018-08-07T06:25:57.605Z,23.20
2018-08-07T06:28:32.683Z,23.70
2018-08-07T06:31:08.883Z,23.50
2018-08-07T06:33:44.429Z,23.60
2018-08-07T06:36:19.881Z,23.50
2018-08-07T06:38:55.109Z,23.50
2018-08-07T06:41:30.265Z,23.70
2018-08-07T06:44:05.432Z,24.20
2018-08-07T06:46:40.514Z,23.90
2018-08-07T06:49:15.554Z,24.00
2018-08-07T06:51:50.757Z,24.10
2018-08-07T06:54:25.943Z,24.20
2018-08-07T06:57:01.200Z,24.50
2018-08-07T06:59:36.335Z,24.50
2018-08-07T07:02:11.488Z,24.40
2018-08-07T07:04:46.460Z,24.30
2018-08-07T07:07:21.578Z,24.40
2018-08-07T07:09:56.629Z,24.50
2018-08-07T07:12:31.737Z,24.40
2018-08-07T07:15:07.996Z,24.60
2018-08-07T07:17:44.412Z,24.50
2018-08-07T07:20:19.918Z,24.80
2018-08-07T07:22:55.233Z,24.90
2018-08-07T07:25:30.313Z,25.10
2018-08-07T07:28:05.648Z,25.20
2018-08-07T07:30:40.754Z,25.20
2018-08-07T07:33:15.787Z,25.40
2018-08-07T07:35:50.929Z,25.50
2018-08-07T07:41:00.838Z,25.90
2018-08-07T07:43:36.235Z,26.20
2018-08-07T07:46:11.509Z,26.20
2018-08-07T07:48:46.537Z,26.50
2018-08-07T07:51:21.703Z,26.80
2018-08-07T07:53:56.690Z,27.40
2018-08-07T07:56:31.703Z,27.80
2018-08-07T07:59:06.796Z,28.00
2018-08-07T08:01:41.790Z,28.30
2018-08-07T08:04:16.834Z,28.50
2018-08-07T08:06:51.898Z,29.00
2018-08-07T08:09:27.140Z,29.40
2018-08-07T08:12:02.144Z,29.70
2018-08-07T08:14:37.255Z,29.40
2018-08-07T08:17:12.372Z,29.20
2018-08-07T08:19:47.491Z,29.10
2018-08-07T08:22:22.459Z,29.00
2018-08-07T08:24:57.491Z,29.00
2018-08-07T08:27:32.533Z,29.00
2018-08-07T08:30:10.284Z,29.00
2018-08-07T08:32:45.781Z,28.90
2018-08-07T08:35:21.015Z,28.90
2018-08-07T08:37:56.172Z,28.90
2018-08-07T08:40:31.303Z,28.90
2018-08-07T08:43:06.394Z,29.00
2018-08-07T08:45:41.565Z,28.90
2018-08-07T08:48:16.633Z,28.90
2018-08-07T08:50:51.734Z,28.90
2018-08-07T08:53:26.864Z,28.80
2018-08-07T08:56:07.606Z,28.90
2018-08-07T08:58:42.620Z,29.00
2018-08-07T09:01:17.780Z,29.00
2018-08-07T09:03:53.004Z,29.10
2018-08-07T09:06:28.000Z,29.10
2018-08-07T09:09:03.168Z,29.10
2018-08-07T09:11:38.304Z,29.10
2018-08-07T09:14:13.651Z,29.10
2018-08-07T09:16:48.684Z,29.50
2018-08-07T09:19:23.846Z,29.30
2018-08-07T09:21:59.049Z,29.30
2018-08-07T09:24:34.357Z,29.30
2018-08-07T09:27:09.567Z,29.30
2018-08-07T09:29:45.812Z,29.40
2018-08-07T09:32:20.899Z,29.40
2018-08-07T09:34:55.891Z,29.30
2018-08-07T09:37:31.032Z,29.40
2018-08-07T09:40:08.031Z,29.40
2018-08-07T09:42:44.040Z,29.40
2018-08-07T09:45:23.355Z,29.40
2018-08-07T09:47:58.806Z,29.40
2018-08-07T09:50:33.776Z,29.40
2018-08-07T09:53:09.336Z,29.40
2018-08-07T09:55:44.356Z,29.40
2018-08-07T09:58:19.327Z,29.40
2018-08-07T10:00:59.940Z,29.40
2018-08-07T10:03:34.972Z,29.70
2018-08-07T10:06:10.241Z,29.60
2018-08-07T10:08:45.435Z,29.70
2018-08-07T10:11:20.548Z,29.70
2018-08-07T10:13:55.797Z,29.70
2018-08-07T10:16:30.842Z,29.70
2018-08-07T10:19:06.170Z,29.70
2018-08-07T10:21:41.195Z,29.80
2018-08-07T10:24:16.264Z,30.20
2018-08-07T10:26:51.499Z,30.00
2018-08-07T10:29:26.543Z,29.90
2018-08-07T10:32:01.644Z,29.90
2018-08-07T10:34:36.805Z,29.90
2018-08-07T10:37:11.980Z,29.80
2018-08-07T10:39:47.049Z,29.80
2018-08-07T10:42:22.254Z,29.80
2018-08-07T10:44:57.396Z,29.80
2018-08-07T10:47:32.594Z,29.80
2018-08-07T10:50:20.556Z,29.90
2018-08-07T10:52:56.312Z,29.90
2018-08-07T10:55:31.522Z,29.90
2018-08-07T10:58:06.540Z,29.90
2018-08-07T11:00:41.668Z,30.00
2018-08-07T11:03:16.848Z,30.00
2018-08-07T11:05:51.946Z,29.90
2018-08-07T11:08:27.036Z,29.90
2018-08-07T11:11:02.276Z,29.90
2018-08-07T11:13:37.263Z,30.00
2018-08-07T11:16:12.334Z,30.00
2018-08-07T11:18:47.314Z,30.00
2018-08-07T11:21:22.444Z,30.00
2018-08-07T11:23:57.452Z,30.00
2018-08-07T11:26:32.472Z,30.00
2018-08-07T11:29:07.571Z,30.00
2018-08-07T11:31:42.762Z,30.00
2018-08-07T11:34:17.817Z,30.00
2018-08-07T11:36:52.844Z,30.00
2018-08-07T11:39:34.448Z,30.00
2018-08-07T11:42:09.542Z,30.00
2018-08-07T11:44:44.552Z,30.00
2018-08-07T11:47:19.780Z,30.00
2018-08-07T11:49:54.959Z,30.30
2018-08-07T11:52:30.085Z,30.20
2018-08-07T11:55:05.387Z,30.20
2018-08-07T11:57:40.524Z,30.10
2018-08-07T12:00:25.141Z,30.10
2018-08-07T12:03:00.208Z,30.10
2018-08-07T12:05:35.279Z,30.10
2018-08-07T12:08:10.380Z,30.10
2018-08-07T12:10:45.436Z,30.20
2018-08-07T12:13:20.472Z,30.20
2018-08-07T12:15:55.465Z,30.20
2018-08-07T12:18:30.484Z,30.10
2018-08-07T12:21:05.456Z,30.10
2018-08-07T12:23:40.710Z,30.20
2018-08-07T12:26:15.748Z,30.10
2018-08-07T12:28:50.898Z,30.30
2018-08-07T12:31:26.176Z,30.20
2018-08-07T12:34:01.134Z,30.20
2018-08-07T12:36:36.241Z,30.10
2018-08-07T12:39:11.243Z,30.20
2018-08-07T12:41:46.436Z,30.30
2018-08-07T12:44:21.664Z,30.20
2018-08-07T12:46:56.831Z,30.20
2018-08-07T12:49:31.999Z,30.20
2018-08-07T12:52:07.609Z,30.20
2018-08-07T12:54:42.728Z,30.30
2018-08-07T12:57:17.936Z,30.30
2018-08-07T12:59:52.952Z,30.30
2018-08-07T13:02:27.979Z,30.30
2018-08-07T13:07:37.836Z,30.30
2018-08-07T13:10:14.502Z,30.30
2018-08-07T13:12:50.395Z,30.30
2018-08-07T13:15:25.544Z,30.30
2018-08-07T13:18:00.669Z,30.30
2018-08-07T13:20:35.700Z,30.30
2018-08-07T13:23:10.869Z,30.30
2018-08-07T13:25:51.363Z,30.30
2018-08-07T13:28:26.481Z,30.40
2018-08-07T13:31:01.631Z,30.40
2018-08-07T13:33:36.682Z,30.40
2018-08-07T13:36:11.695Z,30.40
2018-08-07T13:38:46.876Z,30.50
2018-08-07T13:41:22.235Z,30.50
2018-08-07T13:43:57.328Z,30.50
2018-08-07T13:46:32.441Z,30.50
2018-08-07T13:49:07.786Z,30.60
2018-08-07T13:51:42.777Z,30.50
2018-08-07T13:54:17.789Z,30.50
2018-08-07T13:56:52.957Z,30.50
2018-08-07T13:59:28.070Z,30.50
2018-08-07T14:02:03.286Z,30.50
2018-08-07T14:04:38.363Z,30.50
2018-08-07T14:07:13.425Z,30.50
2018-08-07T14:09:48.643Z,30.50
2018-08-07T14:12:23.884Z,30.50
2018-08-07T14:14:59.044Z,30.50
2018-08-07T14:17:34.145Z,30.50
2018-08-07T14:20:11.058Z,30.60
2018-08-07T14:22:46.300Z,30.70
2018-08-07T14:25:22.949Z,30.70
2018-08-07T14:27:58.017Z,30.70
2018-08-07T14:30:33.141Z,30.60
2018-08-07T14:33:08.229Z,30.60
2018-08-07T14:35:43.360Z,30.60
2018-08-07T14:38:18.615Z,30.60
2018-08-07T14:40:53.622Z,30.70
2018-08-07T14:43:28.795Z,30.70
2018-08-07T14:46:03.952Z,30.70
2018-08-07T14:48:38.946Z,30.60
2018-08-07T14:51:14.163Z,30.70
2018-08-07T14:53:49.509Z,30.60
2018-08-07T14:56:24.659Z,30.60
2018-08-07T14:58:59.911Z,30.60
2018-08-07T15:01:35.241Z,30.60
2018-08-07T15:04:10.396Z,30.70
2018-08-07T15:06:45.529Z,30.70
2018-08-07T15:09:20.697Z,30.70
2018-08-07T15:11:56.396Z,30.70
2018-08-07T15:14:31.509Z,30.80
2018-08-07T15:17:06.960Z,30.80
2018-08-07T15:19:42.160Z,30.80
2018-08-07T15:22:17.212Z,30.80
2018-08-07T15:24:52.222Z,30.80
2018-08-07T15:27:27.414Z,30.80
2018-08-07T15:30:02.678Z,30.80
2018-08-07T15:32:37.837Z,30.80
2018-08-07T15:37:48.299Z,30.90
2018-08-07T15:40:23.646Z,30.80
2018-08-07T15:42:58.684Z,30.90
2018-08-07T15:45:33.879Z,30.90
2018-08-07T15:48:08.827Z,30.90
2018-08-07T15:50:43.960Z,30.90
2018-08-07T15:53:19.054Z,30.90
2018-08-07T15:55:54.020Z,30.90
2018-08-07T15:58:29.212Z,30.80
2018-08-07T16:01:04.429Z,30.90
2018-08-07T16:03:39.552Z,30.80
2018-08-07T16:06:14.659Z,30.90
2018-08-07T16:08:49.649Z,30.90
2018-08-07T16:11:24.684Z,30.90
2018-08-07T16:13:59.873Z,30.90
2018-08-07T16:16:35.428Z,30.90
2018-08-07T16:19:10.596Z,30.90
2018-08-07T16:21:45.710Z,30.90
2018-08-07T16:24:20.747Z,30.90
2018-08-07T16:26:55.884Z,30.90
2018-08-07T16:29:31.094Z,30.90
2018-08-07T16:32:06.245Z,30.90
2018-08-07T16:34:41.404Z,30.90
2018-08-07T16:37:16.543Z,30.90
2018-08-07T16:39:51.653Z,30.90
2018-08-07T16:42:26.656Z,30.90
2018-08-07T16:45:01.688Z,30.90
2018-08-07T16:47:36.832Z,30.90
2018-08-07T16:50:14.034Z,30.90
2018-08-07T16:52:50.318Z,30.90
2018-08-07T16:55:26.579Z,30.90
2018-08-07T16:58:01.680Z,30.80
2018-08-07T17:00:37.893Z,30.80
2018-08-07T17:03:13.152Z,30.90
2018-08-07T17:05:48.220Z,30.80
2018-08-07T17:08:23.304Z,30.90
2018-08-07T17:10:58.337Z,30.80
2018-08-07T17:13:33.467Z,30.90
2018-08-07T17:16:08.492Z,30.80
2018-08-07T17:18:43.545Z,30.90
2018-08-07T17:21:18.723Z,30.80
2018-08-07T17:23:54.486Z,30.80
2018-08-07T17:26:29.544Z,30.80
2018-08-07T17:29:04.711Z,30.80
2018-08-07T17:31:39.790Z,30.80
2018-08-07T17:34:14.844Z,30.80
2018-08-07T17:36:49.981Z,30.80
2018-08-07T17:39:24.984Z,30.80
2018-08-07T17:42:00.176Z,30.80
2018-08-07T17:44:35.424Z,30.80
2018-08-07T17:47:10.437Z,30.80
2018-08-07T17:49:45.562Z,30.80
2018-08-07T17:54:55.586Z,30.80
2018-08-07T17:57:30.960Z,30.80
2018-08-07T18:00:11.565Z,30.80
2018-08-07T18:02:47.164Z,30.80
2018-08-07T18:05:22.314Z,30.80
2018-08-07T18:07:57.995Z,30.80
2018-08-07T18:10:33.471Z,30.80
2018-08-07T18:13:08.479Z,30.80
2018-08-07T18:15:43.450Z,30.80
2018-08-07T18:18:18.439Z,30.80
2018-08-07T18:20:53.533Z,30.70
2018-08-07T18:23:28.572Z,30.70
2018-08-07T18:26:03.987Z,30.70
2018-08-07T18:28:38.980Z,30.70
2018-08-07T18:31:14.197Z,30.80
2018-08-07T18:33:49.515Z,30.80
2018-08-07T18:36:24.556Z,30.80
2018-08-07T18:38:59.638Z,30.90
2018-08-07T18:41:34.906Z,30.80
2018-08-07T18:44:10.283Z,30.60
2018-08-07T18:46:45.314Z,30.40
2018-08-07T18:49:20.494Z,30.40
2018-08-07T18:51:55.787Z,30.30
2018-08-07T18:54:30.848Z,30.30
2018-08-07T18:57:05.919Z,30.20
2018-08-07T18:59:40.901Z,30.30
2018-08-07T19:02:16.069Z,30.30
2018-08-07T19:04:51.483Z,30.40
2018-08-07T19:07:26.417Z,30.40
2018-08-07T19:10:01.516Z,30.50
2018-08-07T19:12:36.955Z,30.40
2018-08-07T19:15:13.100Z,30.50
2018-08-07T19:17:48.302Z,30.40
2018-08-07T19:20:23.495Z,30.50
2018-08-07T19:22:58.670Z,30.50
2018-08-07T19:25:33.977Z,30.50
2018-08-07T19:28:09.004Z,30.40
2018-08-07T19:30:44.480Z,30.40
2018-08-07T19:33:19.676Z,30.40
2018-08-07T19:35:54.783Z,30.40
2018-08-07T19:38:29.955Z,30.50
2018-08-07T19:41:05.101Z,30.50
2018-08-07T19:43:40.225Z,30.50
2018-08-07T19:46:15.423Z,30.50
2018-08-07T19:48:50.456Z,30.50
2018-08-07T19:51:25.589Z,30.50
2018-08-07T19:54:00.772Z,30.50
2018-08-07T19:56:35.861Z,30.50
2018-08-07T19:59:11.072Z,30.40
2018-08-07T20:01:46.080Z,30.40
2018-08-07T20:04:21.113Z,30.40
2018-08-07T20:06:56.274Z,30.40
2018-08-07T20:09:31.525Z,30.40
2018-08-07T20:12:06.744Z,30.40
2018-08-07T20:14:41.779Z,30.40
2018-08-07T20:17:18.624Z,30.30
2018-08-07T20:19:53.766Z,30.40
2018-08-07T20:22:28.979Z,30.30
2018-08-07T20:25:05.489Z,30.30
2018-08-07T20:27:40.552Z,30.30
2018-08-07T20:30:18.030Z,30.30
2018-08-07T20:32:54.822Z,30.30
2018-08-07T20:35:29.889Z,30.30
2018-08-07T20:38:05.144Z,30.30
2018-08-07T20:40:40.139Z,30.20
2018-08-07T20:43:15.304Z,30.20
2018-08-07T20:45:50.499Z,30.20
2018-08-07T20:48:25.624Z,30.20
2018-08-07T20:51:00.865Z,30.20
2018-08-07T20:53:35.872Z,30.20
2018-08-07T20:56:10.924Z,30.20
2018-08-07T20:58:46.113Z,30.20
2018-08-07T21:01:21.192Z,30.20
2018-08-07T21:03:56.255Z,30.20
2018-08-07T21:06:31.268Z,30.20
2018-08-07T21:09:08.373Z,30.10
2018-08-07T21:11:43.404Z,30.10
2018-08-07T21:14:18.581Z,30.10
2018-08-07T21:16:53.733Z,30.10
2018-08-07T21:19:28.765Z,30.10
2018-08-07T21:22:03.858Z,30.10
2018-08-07T21:24:38.916Z,30.10
2018-08-07T21:27:14.200Z,30.00
2018-08-07T21:29:49.368Z,30.00
2018-08-07T21:32:24.615Z,30.00
2018-08-07T21:34:59.854Z,29.90
2018-08-07T21:37:35.050Z,29.90
2018-08-07T21:40:13.279Z,29.90
2018-08-07T21:42:49.272Z,29.80
2018-08-07T21:45:24.497Z,29.80
2018-08-07T21:47:59.677Z,29.80
2018-08-07T21:50:34.943Z,29.90
2018-08-07T21:53:09.983Z,29.90
2018-08-07T21:55:45.196Z,29.90
2018-08-07T21:58:20.424Z,29.80
2018-08-07T22:00:55.608Z,29.70
2018-08-07T22:03:30.898Z,29.50
2018-08-07T22:06:06.404Z,29.60
2018-08-07T22:08:41.640Z,29.60
2018-08-07T22:11:16.863Z,29.70
2018-08-07T22:13:51.870Z,29.70
2018-08-07T22:16:27.026Z,29.60
2018-08-07T22:19:02.156Z,29.50
2018-08-07T22:21:37.244Z,29.50
2018-08-07T22:24:12.419Z,29.40
2018-08-07T22:26:47.549Z,29.40
2018-08-07T22:29:22.679Z,29.40
2018-08-07T22:31:57.681Z,29.50
2018-08-07T22:34:32.843Z,29.50
2018-08-07T22:37:08.000Z,29.50
2018-08-07T22:39:43.104Z,29.60
2018-08-07T22:42:18.078Z,29.60
2018-08-07T22:44:53.071Z,29.50
2018-08-07T22:47:28.142Z,29.40
2018-08-07T22:50:03.401Z,29.50
2018-08-07T22:52:38.488Z,29.50
2018-08-07T22:55:15.344Z,29.50
2018-08-07T22:57:50.456Z,29.60
2018-08-07T23:00:25.605Z,29.60
2018-08-07T23:03:00.541Z,29.60
2018-08-07T23:05:35.769Z,29.50
2018-08-07T23:08:10.880Z,29.50
2018-08-07T23:10:45.909Z,29.50
2018-08-07T23:13:21.151Z,29.50
2018-08-07T23:15:56.286Z,29.50
2018-08-07T23:18:31.561Z,29.50
2018-08-07T23:21:06.881Z,29.50
2018-08-07T23:23:41.951Z,29.40
2018-08-07T23:26:17.092Z,29.50
2018-08-07T23:28:52.447Z,29.40
2018-08-07T23:31:27.784Z,29.30
2018-08-07T23:34:03.268Z,29.20
2018-08-07T23:36:38.306Z,29.30
2018-08-07T23:39:13.540Z,29.30
2018-08-07T23:41:48.677Z,29.30
2018-08-07T23:44:23.789Z,29.30
2018-08-07T23:46:58.926Z,29.30
2018-08-07T23:49:34.102Z,29.30
2018-08-07T23:52:09.108Z,29.30
2018-08-07T23:54:44.356Z,29.30
2018-08-07T23:57:19.363Z,29.30
2018-08-07T23:59:54.487Z,29.30
